Salt Lake City, Utah
Traffic Map
Current Weather Conditions
Salt Lake City, Utah
Overcast
Overcast
11°
Feels Like: 11°
Wind Chill: 11° Ceiling: 3000
Heat Index: 11° Visibility: 10mi
Dew Point: Wind: 15mph
Humidity: 68% Direction: 330° (NNW)
Pressure: 29.75in Gusts: 0mph
Raw Report DataKSLC 220003Z 33013KT 10SM FEW013 FEW022 OVC030 11/05 A2975 RMK AO2 CB DSNT ALQDS VIS LWR DSNT SE-SW T01060050
Traffic Incident Summary
Active as of:
Severity:
Category:
InformationThere was an issue retrieving the traffic information for this location. Please try a different location or try again shortly.
Advertisements